Time;durP1;ratioP1;P1;durP2;ratioP2;P2;SDS_P1;SDS_P2;PMS_P1;PMS_P2;Temp;Humidity;BMP_temperature;BMP_pressure;BME280_temperature;BME280_humidity;BME280_pressure;Samples;Min_cycle;Max_cycle;Signal;HPM_P1;HPM_P2
2022/05/22 00:03:15;;;;;;;5.18;4.47;;;;;;;;;;10458327;28;20053;-76
2022/05/22 00:08:17;;;;;;;6.82;5.10;;;;;;;;;;10461269;28;20048;-78
2022/05/22 00:13:17;;;;;;;6.25;5.03;;;;;;;;;;10478960;28;20087;-79
2022/05/22 00:18:18;;;;;;;6.80;4.97;;;;;;;;;;10470968;28;20139;-79
2022/05/22 00:23:19;;;;;;;7.15;5.90;;;;;;;;;;10475321;28;20569;-79
2022/05/22 00:28:21;;;;;;;5.18;4.68;;;;;;;;;;10476249;28;20045;-79
2022/05/22 00:33:23;;;;;;;7.00;4.68;;;;;;;;;;10476173;28;20040;-78
2022/05/22 00:38:23;;;;;;;6.22;4.70;;;;;;;;;;10447240;28;20044;-77
2022/05/22 00:43:29;;;;;;;8.05;5.20;;;;;;;;;;10454168;28;20058;-76
2022/05/22 00:48:31;;;;;;;7.10;5.20;;;;;;;;;;10440393;28;20483;-77
2022/05/22 00:53:33;;;;;;;6.90;5.28;;;;;;;;;;10456216;28;20132;-77
2022/05/22 00:58:34;;;;;;;;;;;;;;;;;;10451781;28;20056;-76
2022/05/22 01:03:36;;;;;;;7.30;5.97;;;;;;;;;;10470457;28;19998;-76
2022/05/22 01:08:39;;;;;;;7.03;5.65;;;;;;;;;;10469957;28;20045;-77
2022/05/22 01:13:42;;;;;;;9.57;5.93;;;;;;;;;;10470524;28;20071;-77
2022/05/22 01:18:44;;;;;;;5.63;5.07;;;;;;;;;;10462969;28;20136;-76
2022/05/22 01:23:45;;;;;;;5.22;4.18;;;;;;;;;;10468273;28;20041;-76
2022/05/22 01:28:56;;;;;;;7.82;5.13;;;;;;;;;;10488590;28;20056;-77
2022/05/22 01:33:56;;;;;;;4.47;4.05;;;;;;;;;;10441990;28;20089;-76
2022/05/22 01:38:58;;;;;;;4.50;4.10;;;;;;;;;;10471747;28;20082;-76
2022/05/22 01:44:06;;;;;;;6.75;4.60;;;;;;;;;;10422001;28;20040;-78
2022/05/22 01:49:07;;;;;;;6.65;4.68;;;;;;;;;;10441969;28;20068;-78
2022/05/22 01:54:08;;;;;;;6.43;4.00;;;;;;;;;;10454313;28;20032;-77
2022/05/22 01:59:11;;;;;;;5.03;3.72;;;;;;;;;;10446362;28;20116;-77
2022/05/22 02:04:17;;;;;;;6.55;4.13;;;;;;;;;;10448797;28;20094;-77
2022/05/22 02:09:19;;;;;;;4.53;3.93;;;;;;;;;;10447795;28;20044;-77
2022/05/22 02:14:22;;;;;;;5.97;3.88;;;;;;;;;;10421142;28;20323;-76
2022/05/22 02:19:38;;;;;;;6.50;4.72;;;;;;;;;;10448863;28;20040;-77
2022/05/22 02:24:39;;;;;;;6.05;4.43;;;;;;;;;;10425743;28;20141;-77
2022/05/22 02:29:46;;;;;;;5.53;4.40;;;;;;;;;;10438337;28;20166;-76
2022/05/22 02:34:47;;;;;;;6.63;4.70;;;;;;;;;;10447868;28;20504;-77
2022/05/22 02:39:48;;;;;;;7.68;5.30;;;;;;;;;;10435771;28;20223;-77
2022/05/22 02:45:08;;;;;;;10.38;5.55;;;;;;;;;;10478540;28;20036;-74
2022/05/22 02:50:10;;;;;;;6.70;5.22;;;;;;;;;;10493088;28;20079;-78
2022/05/22 02:55:11;;;;;;;6.70;5.77;;;;;;;;;;10458937;28;20044;-77
2022/05/22 03:00:26;;;;;;;5.93;5.27;;;;;;;;;;10466750;28;21069;-75
2022/05/22 03:11:35;;;;;;;5.15;4.65;;;;;;;;;;10461301;28;20048;-74
2022/05/22 03:16:35;;;;;;;6.83;5.47;;;;;;;;;;10446543;28;20495;-76
2022/05/22 03:21:54;;;;;;;5.85;5.20;;;;;;;;;;10469896;28;20061;-75
2022/05/22 03:26:54;;;;;;;6.70;5.68;;;;;;;;;;10455417;28;20066;-75
2022/05/22 03:31:56;;;;;;;8.73;6.68;;;;;;;;;;10466614;28;20056;-77
2022/05/22 03:36:57;;;;;;;8.82;6.65;;;;;;;;;;10439570;28;20048;-77
2022/05/22 03:41:58;;;;;;;7.40;6.03;;;;;;;;;;10458712;28;20052;-76
2022/05/22 03:46:58;;;;;;;7.78;6.82;;;;;;;;;;10483772;28;20049;-78
2022/05/22 03:52:07;;;;;;;6.70;6.10;;;;;;;;;;10451483;28;20060;-76
2022/05/22 03:57:09;;;;;;;6.57;5.43;;;;;;;;;;10458422;28;20049;-77
2022/05/22 04:02:10;;;;;;;6.20;5.60;;;;;;;;;;10453376;28;20493;-78
2022/05/22 04:07:11;;;;;;;6.20;5.22;;;;;;;;;;10440662;28;20044;-77
2022/05/22 04:12:13;;;;;;;7.68;5.95;;;;;;;;;;10475737;28;20445;-76
2022/05/22 04:17:15;;;;;;;6.45;4.97;;;;;;;;;;10446912;28;20567;-75
2022/05/22 04:22:16;;;;;;;5.63;5.13;;;;;;;;;;10437676;28;20029;-75
2022/05/22 04:27:18;;;;;;;6.13;5.05;;;;;;;;;;10470734;28;20116;-76
2022/05/22 04:32:19;;;;;;;6.32;5.43;;;;;;;;;;10447309;28;20059;-77
2022/05/22 04:37:24;;;;;;;6.72;5.22;;;;;;;;;;10455779;28;20040;-76
2022/05/22 04:42:32;;;;;;;8.38;5.40;;;;;;;;;;10452651;28;20044;-78
2022/05/22 04:47:35;;;;;;;5.93;5.40;;;;;;;;;;10441556;28;20041;-76
2022/05/22 04:53:14;;;;;;;5.82;5.18;;;;;;;;;;10254160;28;20043;-77
2022/05/22 04:58:33;;;;;;;6.00;5.03;;;;;;;;;;10432977;28;20079;-76
2022/05/22 05:03:41;;;;;;;6.80;5.43;;;;;;;;;;10446666;28;20044;-78
2022/05/22 05:08:43;;;;;;;7.97;5.60;;;;;;;;;;10424078;28;20054;-76
2022/05/22 05:13:58;;;;;;;8.75;6.00;;;;;;;;;;10452495;28;20128;-75
2022/05/22 05:18:59;;;;;;;6.80;6.20;;;;;;;;;;10468740;28;20626;-76
2022/05/22 05:23:59;;;;;;;7.07;5.85;;;;;;;;;;10443720;28;20151;-76
2022/05/22 05:29:03;;;;;;;6.72;5.78;;;;;;;;;;10436201;28;20049;-75
2022/05/22 05:34:10;;;;;;;6.40;5.50;;;;;;;;;;10452713;28;20483;-76
2022/05/22 05:39:14;;;;;;;8.18;5.70;;;;;;;;;;10449729;28;20121;-75
2022/05/22 05:44:33;;;;;;;9.00;5.95;;;;;;;;;;10450146;28;20033;-74
2022/05/22 05:49:53;;;;;;;6.95;5.82;;;;;;;;;;10458514;28;20047;-75
2022/05/22 05:55:14;;;;;;;7.32;6.60;;;;;;;;;;10475849;28;20079;-74
2022/05/22 06:00:35;;;;;;;8.05;6.70;;;;;;;;;;10415238;28;20390;-75
2022/05/22 06:05:35;;;;;;;10.90;6.38;;;;;;;;;;10449920;28;20106;-77
2022/05/22 06:10:44;;;;;;;7.13;6.43;;;;;;;;;;10444528;28;20549;-75
2022/05/22 06:15:52;;;;;;;9.48;6.10;;;;;;;;;;10443748;28;20044;-76
2022/05/22 06:20:53;;;;;;;6.40;5.72;;;;;;;;;;10457471;28;20036;-77
2022/05/22 06:26:02;;;;;;;4.70;4.22;;;;;;;;;;10457941;28;20096;-75
2022/05/22 06:31:17;;;;;;;5.93;4.80;;;;;;;;;;10442637;28;20044;-74
2022/05/22 06:36:28;;;;;;;6.70;6.00;;;;;;;;;;10466282;28;20181;-76
2022/05/22 06:41:46;;;;;;;4.93;4.43;;;;;;;;;;10455928;28;20045;-75
2022/05/22 06:47:17;;;;;;;5.63;5.13;;;;;;;;;;10463540;28;20657;-77
2022/05/22 06:52:47;;;;;;;5.70;4.72;;;;;;;;;;10476005;28;20032;-75
2022/05/22 06:58:10;;;;;;;6.93;5.37;;;;;;;;;;10465029;28;20067;-77
2022/05/22 07:03:29;;;;;;;4.63;4.10;;;;;;;;;;10484341;28;20060;-75
2022/05/22 07:08:47;;;;;;;5.30;4.30;;;;;;;;;;10459663;28;20045;-76
2022/05/22 07:14:25;;;;;;;4.68;4.10;;;;;;;;;;10451832;28;20131;-77
2022/05/22 07:19:44;;;;;;;4.35;3.95;;;;;;;;;;10459640;28;20037;-72
2022/05/22 07:25:05;;;;;;;3.63;3.33;;;;;;;;;;10498521;28;20048;-72
2022/05/22 07:30:12;;;;;;;3.90;3.60;;;;;;;;;;10454339;28;20036;-72
2022/05/22 07:35:30;;;;;;;3.97;2.83;;;;;;;;;;10459213;28;20506;-72
2022/05/22 07:40:59;;;;;;;4.10;2.60;;;;;;;;;;10467038;28;20231;-73
2022/05/22 07:46:17;;;;;;;4.32;2.90;;;;;;;;;;10476768;28;20049;-72
2022/05/22 07:51:47;;;;;;;5.07;3.03;;;;;;;;;;10471508;28;20071;-72
2022/05/22 07:57:08;;;;;;;4.53;3.20;;;;;;;;;;10448078;28;20148;-73
2022/05/22 08:02:25;;;;;;;3.45;3.15;;;;;;;;;;10463403;28;20095;-72
2022/05/22 08:07:29;;;;;;;4.45;3.08;;;;;;;;;;10432366;28;20036;-72
2022/05/22 08:12:41;;;;;;;4.88;3.03;;;;;;;;;;10425308;28;20045;-74
2022/05/22 08:17:51;;;;;;;6.65;4.35;;;;;;;;;;10442304;28;20049;-72
2022/05/22 08:22:55;;;;;;;7.07;2.60;;;;;;;;;;10446541;28;20032;-73
2022/05/22 08:28:17;;;;;;;3.67;1.73;;;;;;;;;;10454966;28;20056;-73
2022/05/22 08:33:18;;;;;;;3.42;1.90;;;;;;;;;;10518283;28;20056;-74
2022/05/22 08:38:18;;;;;;;3.93;2.07;;;;;;;;;;10502794;28;20052;-70
2022/05/22 08:43:27;;;;;;;4.00;2.00;;;;;;;;;;10468710;28;20044;-73
2022/05/22 08:48:32;;;;;;;4.07;2.90;;;;;;;;;;10474504;28;20082;-70
2022/05/22 08:53:40;;;;;;;6.30;3.28;;;;;;;;;;10469432;28;20035;-70
2022/05/22 08:58:58;;;;;;;3.65;2.00;;;;;;;;;;10421245;28;20059;-73
2022/05/22 09:04:01;;;;;;;2.85;2.20;;;;;;;;;;10468331;28;20030;-72
2022/05/22 09:09:01;;;;;;;13.13;9.73;;;;;;;;;;10469239;28;20056;-72
2022/05/22 09:14:08;;;;;;;3.33;2.28;;;;;;;;;;10450477;28;20051;-72
2022/05/22 09:19:10;;;;;;;6.13;2.25;;;;;;;;;;10479461;28;20055;-71
2022/05/22 09:24:18;;;;;;;4.00;2.40;;;;;;;;;;10469241;28;20054;-74
2022/05/22 09:29:37;;;;;;;4.82;3.05;;;;;;;;;;10437135;28;20045;-72
2022/05/22 09:34:58;;;;;;;4.07;2.00;;;;;;;;;;10455413;28;20150;-71
2022/05/22 09:40:22;;;;;;;5.00;2.50;;;;;;;;;;10473233;28;20102;-72
2022/05/22 09:45:22;;;;;;;;;;;;;;;;;;10454187;28;20372;-72
2022/05/22 09:50:27;;;;;;;3.10;2.30;;;;;;;;;;10462633;28;19913;-72
2022/05/22 09:55:30;;;;;;;4.03;3.30;;;;;;;;;;10471063;28;20511;-73
2022/05/22 10:00:35;;;;;;;4.40;2.50;;;;;;;;;;10470940;28;20495;-73
2022/05/22 10:05:36;;;;;;;4.18;2.30;;;;;;;;;;10476405;28;20056;-73
2022/05/22 10:10:57;;;;;;;4.23;2.00;;;;;;;;;;10460211;28;20575;-71
2022/05/22 10:16:19;;;;;;;2.95;2.08;;;;;;;;;;10442800;28;20298;-73
2022/05/22 10:21:29;;;;;;;2.80;2.00;;;;;;;;;;10458075;28;20111;-72
2022/05/22 10:26:32;;;;;;;2.35;1.77;;;;;;;;;;10479358;28;20506;-75
2022/05/22 10:31:32;;;;;;;3.08;1.70;;;;;;;;;;10512938;28;20045;-74
2022/05/22 10:36:36;;;;;;;2.30;1.80;;;;;;;;;;10472868;28;20052;-72
2022/05/22 10:47:24;;;;;;;5.57;3.22;;;;;;;;;;10457704;28;20153;-71
2022/05/22 10:52:37;;;;;;;4.55;3.00;;;;;;;;;;10453024;28;20041;-71
2022/05/22 10:57:37;;;;;;;3.73;2.60;;;;;;;;;;10442347;28;20064;-72
2022/05/22 11:02:38;;;;;;;6.88;3.85;;;;;;;;;;10461225;28;20044;-73
2022/05/22 11:07:44;;;;;;;2.88;2.33;;;;;;;;;;10476774;28;20084;-73
2022/05/22 11:12:44;;;;;;;2.85;2.00;;;;;;;;;;10440591;28;20130;-74
2022/05/22 11:17:45;;;;;;;4.33;2.37;;;;;;;;;;10459548;28;20052;-72
2022/05/22 11:22:58;;;;;;;2.50;2.03;;;;;;;;;;10445627;28;20051;-72
2022/05/22 11:28:19;;;;;;;2.50;2.15;;;;;;;;;;10469227;28;20166;-75
2022/05/22 11:33:37;;;;;;;3.83;2.20;;;;;;;;;;10473693;28;20052;-72
2022/05/22 11:39:02;;;;;;;3.38;2.20;;;;;;;;;;10457911;28;20050;-74
2022/05/22 11:44:32;;;;;;;4.90;2.30;;;;;;;;;;10443442;28;20040;-73
2022/05/22 11:49:38;;;;;;;6.05;2.83;;;;;;;;;;10469670;28;20049;-73
2022/05/22 11:54:39;;;;;;;3.05;1.95;;;;;;;;;;10430351;28;20057;-72
2022/05/22 11:59:47;;;;;;;4.47;2.05;;;;;;;;;;10462970;28;20048;-74
2022/05/22 12:05:04;;;;;;;3.10;2.10;;;;;;;;;;10433244;28;20044;-73
2022/05/22 12:10:11;;;;;;;2.33;1.85;;;;;;;;;;10463023;28;20079;-73
2022/05/22 12:15:31;;;;;;;3.90;2.00;;;;;;;;;;10433842;28;20059;-74
2022/05/22 12:20:41;;;;;;;2.00;1.80;;;;;;;;;;10452789;28;20036;-73
2022/05/22 12:25:58;;;;;;;6.03;2.65;;;;;;;;;;10470534;28;20049;-75
2022/05/22 12:30:59;;;;;;;5.85;2.90;;;;;;;;;;10476098;28;20478;-74
2022/05/22 12:36:00;;;;;;;3.42;2.10;;;;;;;;;;10460299;28;20052;-74
2022/05/22 12:41:12;;;;;;;3.33;2.30;;;;;;;;;;10460450;28;20032;-76
2022/05/22 12:46:13;;;;;;;3.28;1.85;;;;;;;;;;10480689;28;20047;-72
2022/05/22 12:51:21;;;;;;;3.90;1.90;;;;;;;;;;10472213;28;20040;-73
2022/05/22 12:56:27;;;;;;;3.83;2.10;;;;;;;;;;10454271;28;20092;-74
2022/05/22 13:01:27;;;;;;;3.60;2.20;;;;;;;;;;10458253;28;20062;-74
2022/05/22 13:06:36;;;;;;;3.63;2.63;;;;;;;;;;10472147;28;20040;-74
2022/05/22 13:11:44;;;;;;;2.90;1.60;;;;;;;;;;10470611;28;20045;-70
2022/05/22 13:16:47;;;;;;;5.18;2.53;;;;;;;;;;10475669;28;20084;-74
2022/05/22 13:21:48;;;;;;;4.72;2.67;;;;;;;;;;10452529;28;20044;-72
2022/05/22 13:27:00;;;;;;;5.43;2.70;;;;;;;;;;10464251;28;20044;-75
2022/05/22 13:32:02;;;;;;;2.17;1.50;;;;;;;;;;10483186;28;20372;-76
2022/05/22 13:37:04;;;;;;;3.85;2.03;;;;;;;;;;10476002;28;20562;-77
2022/05/22 13:42:20;;;;;;;2.17;1.75;;;;;;;;;;10466072;28;20040;-78
2022/05/22 13:47:40;;;;;;;3.65;1.90;;;;;;;;;;10464411;28;20065;-73
2022/05/22 13:52:50;;;;;;;2.38;1.80;;;;;;;;;;10441044;28;20069;-73
2022/05/22 13:58:03;;;;;;;1.60;1.45;;;;;;;;;;10463169;28;20044;-72
2022/05/22 14:03:07;;;;;;;3.45;2.58;;;;;;;;;;10431160;28;20070;-71
2022/05/22 14:08:09;;;;;;;4.50;2.60;;;;;;;;;;10461849;28;20383;-74
2022/05/22 14:13:18;;;;;;;2.85;1.80;;;;;;;;;;10460720;28;20083;-75
2022/05/22 14:18:21;;;;;;;3.95;2.97;;;;;;;;;;10445425;28;20036;-76
2022/05/22 14:23:32;;;;;;;12.90;9.75;;;;;;;;;;10460585;28;20425;-73
2022/05/22 14:28:38;;;;;;;2.67;1.90;;;;;;;;;;10477565;28;20051;-71
2022/05/22 14:33:38;;;;;;;4.53;3.45;;;;;;;;;;10474398;28;20090;-76
2022/05/22 14:38:41;;;;;;;17.55;11.98;;;;;;;;;;10450529;28;20251;-72
2022/05/22 14:43:53;;;;;;;35.72;22.80;;;;;;;;;;10470894;28;20095;-74
2022/05/22 14:48:54;;;;;;;;;;;;;;;;;;10470183;28;20041;-75
2022/05/22 14:54:13;;;;;;;30.00;18.98;;;;;;;;;;10482434;28;19916;-76
2022/05/22 14:59:16;;;;;;;4.60;3.50;;;;;;;;;;10454912;28;20423;-75
2022/05/22 15:04:21;;;;;;;2.63;1.80;;;;;;;;;;10463157;28;20157;-74
2022/05/22 15:09:31;;;;;;;7.22;3.85;;;;;;;;;;10467029;28;20498;-76
2022/05/22 15:14:41;;;;;;;2.20;1.70;;;;;;;;;;10455241;28;20037;-76
2022/05/22 15:19:52;;;;;;;4.22;2.90;;;;;;;;;;10463454;28;20049;-77
2022/05/22 15:30:50;;;;;;;;;;;;;;;;;;;;;
2022/05/22 15:36:30;;;;;;;2.35;1.60;;;;;;;;;;10454774;28;20087;-75
2022/05/22 15:41:36;;;;;;;3.60;2.45;;;;;;;;;;10464828;28;20397;-76
2022/05/22 15:46:56;;;;;;;2.40;2.05;;;;;;;;;;10478184;28;20041;-76
2022/05/22 15:52:06;;;;;;;1.98;1.77;;;;;;;;;;10446505;28;20036;-77
2022/05/22 15:57:18;;;;;;;3.03;1.60;;;;;;;;;;10428644;28;20048;-76
2022/05/22 16:02:54;;;;;;;4.30;1.90;;;;;;;;;;10387852;28;20448;-74
2022/05/22 16:07:58;;;;;;;2.72;1.70;;;;;;;;;;10389095;28;20107;-79
2022/05/22 16:13:00;;;;;;;2.22;1.60;;;;;;;;;;10428776;28;20044;-75
2022/05/22 16:18:05;;;;;;;4.80;2.53;;;;;;;;;;10449465;28;20131;-77
2022/05/22 16:23:08;;;;;;;3.50;2.53;;;;;;;;;;10438528;28;20037;-77
2022/05/22 16:28:14;;;;;;;2.47;1.93;;;;;;;;;;10421337;28;20056;-75
2022/05/22 16:33:16;;;;;;;2.58;2.22;;;;;;;;;;10427094;28;20033;-75
2022/05/22 16:38:16;;;;;;;2.35;1.40;;;;;;;;;;10444602;28;20471;-72
2022/05/22 16:43:17;;;;;;;3.93;2.43;;;;;;;;;;10462646;28;20127;-74
2022/05/22 16:53:36;;;;;;;3.38;2.10;;;;;;;;;;10455019;28;20042;-72
2022/05/22 16:58:39;;;;;;;3.70;2.08;;;;;;;;;;10464897;28;20052;-70
2022/05/22 17:03:40;;;;;;;6.90;5.10;;;;;;;;;;10448559;28;20770;-74
2022/05/22 17:08:52;;;;;;;4.05;3.30;;;;;;;;;;10479243;28;20048;-72
2022/05/22 17:14:01;;;;;;;3.75;2.20;;;;;;;;;;10467706;28;20427;-74
2022/05/22 17:19:02;;;;;;;6.55;3.25;;;;;;;;;;10476757;28;20491;-73
2022/05/22 17:24:03;;;;;;;3.00;1.80;;;;;;;;;;10472434;28;20032;-73
2022/05/22 17:29:08;;;;;;;3.42;2.58;;;;;;;;;;10486934;28;20059;-75
2022/05/22 17:34:09;;;;;;;2.92;1.52;;;;;;;;;;10448346;28;20086;-74
2022/05/22 17:39:11;;;;;;;2.90;2.20;;;;;;;;;;10467552;28;20136;-77
2022/05/22 17:44:11;;;;;;;4.10;2.15;;;;;;;;;;10482574;28;20047;-75
2022/05/22 17:49:13;;;;;;;3.72;2.20;;;;;;;;;;10488816;28;20049;-75
2022/05/22 17:54:14;;;;;;;2.25;1.92;;;;;;;;;;10464785;28;20731;-75
2022/05/22 17:59:14;;;;;;;4.07;2.38;;;;;;;;;;10461031;28;20052;-75
2022/05/22 18:04:16;;;;;;;3.28;2.40;;;;;;;;;;10469041;28;20048;-75
2022/05/22 18:09:18;;;;;;;3.73;2.23;;;;;;;;;;10463239;28;20044;-77
2022/05/22 18:19:39;;;;;;;3.38;2.28;;;;;;;;;;10495188;28;19920;-76
2022/05/22 18:29:59;;;;;;;2.15;1.95;;;;;;;;;;10507980;28;20090;-75
2022/05/22 18:35:05;;;;;;;3.00;2.28;;;;;;;;;;10498871;28;20036;-75
2022/05/22 18:40:06;;;;;;;3.03;1.85;;;;;;;;;;10479995;28;20040;-76
2022/05/22 18:45:07;;;;;;;2.85;2.63;;;;;;;;;;10463954;28;20115;-75
2022/05/22 18:50:08;;;;;;;2.97;2.28;;;;;;;;;;10456261;28;20051;-76
2022/05/22 18:55:10;;;;;;;3.45;2.70;;;;;;;;;;10476306;28;20153;-76
2022/05/22 19:00:16;;;;;;;4.00;2.80;;;;;;;;;;10490443;28;20037;-77
2022/05/22 19:05:22;;;;;;;2.42;2.22;;;;;;;;;;10489520;28;20047;-75
2022/05/22 19:10:23;;;;;;;5.18;4.30;;;;;;;;;;10484717;28;20106;-74
2022/05/22 19:15:23;;;;;;;4.28;2.70;;;;;;;;;;10458728;28;20049;-80
2022/05/22 19:20:26;;;;;;;2.40;2.13;;;;;;;;;;10486859;28;20068;-82
2022/05/22 19:25:30;;;;;;;3.45;2.47;;;;;;;;;;10499210;28;20123;-82
2022/05/22 19:30:39;;;;;;;4.10;3.00;;;;;;;;;;10480786;28;20147;-81
2022/05/22 19:35:42;;;;;;;3.88;2.53;;;;;;;;;;10497443;28;20053;-81
2022/05/22 19:40:45;;;;;;;2.83;2.58;;;;;;;;;;10475976;28;20048;-81
2022/05/22 19:45:47;;;;;;;4.18;2.45;;;;;;;;;;10506128;28;20045;-81
2022/05/22 19:50:49;;;;;;;4.53;3.03;;;;;;;;;;10455022;28;20053;-79
2022/05/22 20:01:13;;;;;;;4.72;3.42;;;;;;;;;;10451943;28;20040;-81
2022/05/22 20:06:20;;;;;;;3.15;2.60;;;;;;;;;;10473398;28;20040;-80
2022/05/22 20:11:22;;;;;;;4.53;2.58;;;;;;;;;;10473724;28;20044;-84
2022/05/22 20:16:27;;;;;;;3.85;3.05;;;;;;;;;;10464253;28;20045;-80
2022/05/22 20:21:27;;;;;;;7.60;3.30;;;;;;;;;;10449271;28;20025;-81
2022/05/22 20:26:28;;;;;;;4.28;3.35;;;;;;;;;;10474989;28;20033;-79
2022/05/22 20:31:33;;;;;;;3.65;3.00;;;;;;;;;;10449885;28;20047;-81
2022/05/22 20:36:37;;;;;;;3.30;3.00;;;;;;;;;;10434550;28;20071;-81
2022/05/22 20:41:38;;;;;;;3.15;2.67;;;;;;;;;;10448075;28;20438;-80
2022/05/22 20:46:43;;;;;;;4.45;3.05;;;;;;;;;;10482764;28;20096;-80
2022/05/22 20:51:43;;;;;;;3.67;3.05;;;;;;;;;;10464845;28;20052;-79
2022/05/22 20:56:53;;;;;;;2.97;2.60;;;;;;;;;;10459516;28;20063;-79
2022/05/22 21:01:56;;;;;;;2.70;2.50;;;;;;;;;;10479029;28;20135;-79
2022/05/22 21:06:56;;;;;;;;;;;;;;;;;;10478980;28;20040;-79
2022/05/22 21:12:02;;;;;;;4.93;3.25;;;;;;;;;;10457597;28;19924;-79
2022/05/22 21:17:03;;;;;;;4.88;3.50;;;;;;;;;;10478610;28;20056;-78
2022/05/22 21:22:05;;;;;;;3.38;3.08;;;;;;;;;;10469457;28;20096;-79
2022/05/22 21:32:44;;;;;;;4.10;3.25;;;;;;;;;;10492115;28;20040;-79
2022/05/22 21:37:46;;;;;;;3.30;3.00;;;;;;;;;;10499823;28;20029;-79
2022/05/22 21:42:46;;;;;;;3.83;3.40;;;;;;;;;;10477608;28;20060;-77
2022/05/22 21:47:48;;;;;;;4.63;3.40;;;;;;;;;;10480552;28;20279;-78
2022/05/22 21:52:48;;;;;;;4.47;3.50;;;;;;;;;;10482998;28;20041;-80
2022/05/22 21:57:51;;;;;;;4.78;3.60;;;;;;;;;;10440635;28;20286;-79
2022/05/22 22:02:53;;;;;;;5.15;4.18;;;;;;;;;;10485128;28;20068;-79
2022/05/22 22:07:56;;;;;;;5.53;3.78;;;;;;;;;;10498793;28;20068;-81
2022/05/22 22:12:56;;;;;;;4.03;3.60;;;;;;;;;;10474843;28;20060;-79
2022/05/22 22:17:57;;;;;;;4.05;3.65;;;;;;;;;;10496123;28;20502;-78
2022/05/22 22:23:02;;;;;;;4.68;3.83;;;;;;;;;;10444528;28;20049;-79
2022/05/22 22:28:07;;;;;;;4.95;4.35;;;;;;;;;;10460186;28;20045;-77
2022/05/22 22:33:09;;;;;;;4.55;4.05;;;;;;;;;;10451580;28;20033;-77
2022/05/22 22:38:09;;;;;;;4.82;3.97;;;;;;;;;;10423143;28;20053;-77
2022/05/22 22:43:12;;;;;;;4.88;4.00;;;;;;;;;;10474904;28;20037;-79
2022/05/22 22:48:12;;;;;;;4.55;3.75;;;;;;;;;;10464208;28;20032;-78
2022/05/22 22:53:12;;;;;;;5.37;4.00;;;;;;;;;;10465595;28;20040;-83
2022/05/22 22:58:15;;;;;;;4.13;3.70;;;;;;;;;;10473156;28;20144;-78
2022/05/22 23:03:16;;;;;;;4.35;3.95;;;;;;;;;;10457337;28;20060;-77
2022/05/22 23:08:17;;;;;;;4.82;3.42;;;;;;;;;;10438957;28;20052;-78
2022/05/22 23:13:18;;;;;;;4.82;3.20;;;;;;;;;;10476163;28;20553;-80
2022/05/22 23:18:19;;;;;;;4.00;3.17;;;;;;;;;;10493137;28;20052;-80
2022/05/22 23:23:23;;;;;;;4.38;3.70;;;;;;;;;;10477005;28;20529;-79
2022/05/22 23:28:24;;;;;;;3.88;3.45;;;;;;;;;;10462617;28;20123;-80
2022/05/22 23:33:24;;;;;;;4.97;3.40;;;;;;;;;;10465266;28;20037;-79
2022/05/22 23:38:27;;;;;;;4.63;3.55;;;;;;;;;;10482966;28;20446;-78
2022/05/22 23:43:28;;;;;;;4.40;3.25;;;;;;;;;;10483899;28;20059;-78
2022/05/22 23:48:31;;;;;;;3.53;3.20;;;;;;;;;;10458631;28;20123;-77
2022/05/22 23:53:32;;;;;;;3.58;3.28;;;;;;;;;;10481630;28;20064;-78
2022/05/22 23:58:32;;;;;;;4.30;3.58;;;;;;;;;;10486611;28;20352;-79
